createdAt,value
2018-07-05T00:01:37.261Z,18.30
2018-07-05T00:04:16.890Z,18.20
2018-07-05T00:06:56.641Z,18.20
2018-07-05T00:09:36.384Z,18.20
2018-07-05T00:14:49.569Z,18.30
2018-07-05T00:17:29.288Z,18.20
2018-07-05T00:20:08.995Z,18.20
2018-07-05T00:22:48.629Z,18.10
2018-07-05T00:25:28.376Z,18.10
2018-07-05T00:28:08.101Z,18.00
2018-07-05T00:30:47.852Z,18.00
2018-07-05T00:33:27.438Z,17.90
2018-07-05T00:36:07.220Z,17.90
2018-07-05T00:38:46.908Z,17.90
2018-07-05T00:41:26.526Z,17.90
2018-07-05T00:44:06.356Z,18.00
2018-07-05T00:46:46.048Z,18.00
2018-07-05T00:49:25.668Z,17.90
2018-07-05T00:52:05.427Z,17.90
2018-07-05T00:54:45.038Z,17.90
2018-07-05T00:57:24.664Z,17.90
2018-07-05T01:00:04.286Z,17.80
2018-07-05T01:02:43.974Z,17.80
2018-07-05T01:05:23.641Z,17.80
2018-07-05T01:08:03.286Z,17.70
2018-07-05T01:10:42.910Z,17.70
2018-07-05T01:13:22.593Z,17.70
2018-07-05T01:16:02.333Z,17.60
2018-07-05T01:18:42.014Z,17.60
2018-07-05T01:21:21.696Z,17.70
2018-07-05T01:24:01.485Z,17.70
2018-07-05T01:26:41.087Z,17.70
2018-07-05T01:29:20.785Z,17.80
2018-07-05T01:32:00.389Z,17.70
2018-07-05T01:34:40.194Z,17.70
2018-07-05T01:39:53.267Z,17.80
2018-07-05T01:42:32.977Z,17.80
2018-07-05T01:45:12.913Z,17.70
2018-07-05T01:47:52.813Z,17.70
2018-07-05T01:50:32.678Z,17.60
2018-07-05T01:53:12.473Z,17.60
2018-07-05T01:55:52.103Z,17.70
2018-07-05T01:58:31.769Z,17.80
2018-07-05T02:01:11.414Z,17.80
2018-07-05T02:03:51.060Z,17.80
2018-07-05T02:06:30.793Z,17.80
2018-07-05T02:09:10.415Z,17.70
2018-07-05T02:11:49.964Z,17.70
2018-07-05T02:14:29.817Z,17.70
2018-07-05T02:17:09.477Z,17.70
2018-07-05T02:19:49.036Z,17.70
2018-07-05T02:22:28.720Z,17.70
2018-07-05T02:25:08.232Z,17.70
2018-07-05T02:27:47.994Z,17.70
2018-07-05T02:30:27.620Z,17.70
2018-07-05T02:33:07.522Z,17.70
2018-07-05T02:35:47.245Z,17.70
2018-07-05T02:38:26.948Z,17.60
2018-07-05T02:41:06.579Z,17.70
2018-07-05T02:43:46.200Z,17.70
2018-07-05T02:46:25.877Z,17.70
2018-07-05T02:49:05.693Z,17.60
2018-07-05T02:51:45.396Z,17.60
2018-07-05T02:54:25.121Z,17.50
2018-07-05T02:57:04.750Z,17.50
2018-07-05T02:59:44.300Z,17.50
2018-07-05T03:02:23.932Z,17.50
2018-07-05T03:05:03.648Z,17.50
2018-07-05T03:07:43.509Z,17.40
2018-07-05T03:10:23.304Z,17.30
2018-07-05T03:13:02.997Z,17.30
2018-07-05T03:15:42.732Z,17.30
2018-07-05T03:18:22.293Z,17.30
2018-07-05T03:21:02.009Z,17.20
2018-07-05T03:23:41.736Z,17.20
2018-07-05T03:26:21.405Z,17.10
2018-07-05T03:29:01.141Z,17.10
2018-07-05T03:31:40.720Z,17.10
2018-07-05T03:34:20.325Z,17.10
2018-07-05T03:37:00.039Z,17.10
2018-07-05T03:39:39.575Z,17.10
2018-07-05T03:42:19.440Z,17.20
2018-07-05T03:44:59.008Z,17.20
2018-07-05T03:47:38.802Z,17.30
2018-07-05T03:50:18.281Z,17.40
2018-07-05T03:52:57.994Z,17.50
2018-07-05T03:55:37.684Z,17.60
2018-07-05T03:58:17.420Z,17.70
2018-07-05T04:00:57.073Z,17.80
2018-07-05T04:03:36.700Z,17.90
2018-07-05T04:06:16.385Z,18.00
2018-07-05T04:08:55.961Z,18.10
2018-07-05T04:11:35.692Z,18.20
2018-07-05T04:14:15.421Z,18.30
2018-07-05T04:16:55.030Z,18.40
2018-07-05T04:19:39.270Z,18.50
2018-07-05T04:22:18.976Z,18.50
2018-07-05T04:24:58.677Z,18.60
2018-07-05T04:27:38.493Z,18.70
2018-07-05T04:30:18.144Z,18.80
2018-07-05T04:32:57.856Z,18.90
2018-07-05T04:35:37.495Z,18.90
2018-07-05T04:38:17.176Z,19.00
2018-07-05T04:40:56.993Z,19.10
2018-07-05T04:43:36.705Z,19.20
2018-07-05T04:46:16.229Z,19.30
2018-07-05T04:48:55.994Z,19.40
2018-07-05T04:51:36.038Z,19.50
2018-07-05T04:54:15.650Z,19.50
2018-07-05T04:56:55.140Z,19.60
2018-07-05T04:59:34.953Z,19.70
2018-07-05T05:02:14.676Z,19.80
2018-07-05T05:04:54.331Z,19.90
2018-07-05T05:07:33.984Z,20.00
2018-07-05T05:10:13.757Z,20.00
2018-07-05T05:12:53.324Z,20.10
2018-07-05T05:15:32.998Z,20.20
2018-07-05T05:18:12.555Z,20.40
2018-07-05T05:20:52.205Z,20.50
2018-07-05T05:23:31.945Z,20.60
2018-07-05T05:26:11.583Z,20.70
2018-07-05T05:28:51.378Z,20.80
2018-07-05T05:31:31.136Z,21.00
2018-07-05T05:36:44.549Z,21.30
2018-07-05T05:39:24.146Z,23.00
2018-07-05T05:42:04.043Z,25.40
2018-07-05T05:44:43.997Z,27.70
2018-07-05T05:47:23.668Z,29.50
2018-07-05T05:50:03.270Z,29.80
2018-07-05T05:52:42.966Z,30.20
2018-07-05T05:55:22.608Z,30.70
2018-07-05T05:58:02.202Z,31.70
2018-07-05T06:00:41.940Z,31.80
2018-07-05T06:03:21.763Z,31.50
2018-07-05T06:06:01.212Z,31.40
2018-07-05T06:08:41.017Z,32.30
2018-07-05T06:11:20.683Z,32.90
2018-07-05T06:14:00.661Z,33.40
2018-07-05T06:16:40.222Z,33.80
2018-07-05T06:19:19.863Z,33.60
2018-07-05T06:21:59.453Z,32.40
2018-07-05T06:24:39.053Z,32.40
2018-07-05T06:27:18.673Z,32.40
2018-07-05T06:29:58.528Z,32.30
2018-07-05T06:32:38.115Z,32.30
2018-07-05T06:35:17.813Z,33.10
2018-07-05T06:37:57.688Z,34.00
2018-07-05T06:40:37.501Z,33.20
2018-07-05T06:43:17.157Z,32.90
2018-07-05T06:45:56.830Z,33.50
2018-07-05T06:48:36.565Z,34.00
2018-07-05T06:51:16.373Z,33.90
2018-07-05T06:53:56.208Z,34.10
2018-07-05T06:56:35.959Z,32.90
2018-07-05T06:59:16.439Z,33.00
2018-07-05T07:01:56.024Z,34.00
2018-07-05T07:04:35.685Z,34.60
2018-07-05T07:07:15.344Z,35.20
2018-07-05T07:09:54.949Z,35.50
2018-07-05T07:12:34.849Z,35.20
2018-07-05T07:15:14.981Z,34.50
2018-07-05T07:17:54.784Z,34.40
2018-07-05T07:20:34.641Z,34.30
2018-07-05T07:23:14.336Z,34.10
2018-07-05T07:25:54.196Z,33.20
2018-07-05T07:28:33.806Z,32.80
2018-07-05T07:31:13.687Z,32.80
2018-07-05T07:33:53.405Z,31.60
2018-07-05T07:36:32.994Z,31.90
2018-07-05T07:39:12.560Z,31.10
2018-07-05T07:41:47.168Z,31.70
2018-07-05T07:44:15.113Z,32.10
2018-07-05T07:46:42.421Z,33.50
2018-07-05T07:49:09.732Z,34.10
2018-07-05T07:51:37.195Z,34.20
2018-07-05T07:54:04.488Z,33.60
2018-07-05T07:56:31.830Z,33.00
2018-07-05T07:58:59.199Z,33.60
2018-07-05T08:01:26.553Z,34.50
2018-07-05T08:03:53.871Z,35.10
2018-07-05T08:06:21.206Z,34.50
2018-07-05T08:08:48.509Z,33.90
2018-07-05T08:11:15.869Z,32.60
2018-07-05T08:13:43.172Z,31.30
2018-07-05T08:16:10.518Z,30.80
2018-07-05T08:18:37.825Z,30.10
2018-07-05T08:21:05.163Z,30.20
2018-07-05T08:23:32.465Z,29.90
2018-07-05T08:25:59.802Z,30.00
2018-07-05T08:28:27.114Z,30.30
2018-07-05T08:30:54.468Z,30.50
2018-07-05T08:33:21.781Z,30.60
2018-07-05T08:35:49.111Z,30.80
2018-07-05T08:38:16.405Z,30.40
2018-07-05T08:40:43.761Z,30.00
2018-07-05T08:43:11.058Z,29.90
2018-07-05T08:45:38.354Z,29.70
2018-07-05T08:48:05.696Z,29.60
2018-07-05T08:50:33.005Z,29.70
2018-07-05T08:53:00.361Z,29.20
2018-07-05T08:55:27.669Z,28.90
2018-07-05T08:57:55.021Z,29.60
2018-07-05T09:00:22.336Z,29.90
2018-07-05T09:02:49.699Z,29.80
2018-07-05T09:05:17.075Z,29.70
2018-07-05T09:07:44.394Z,29.80
2018-07-05T09:10:11.707Z,29.80
2018-07-05T09:15:06.730Z,29.40
2018-07-05T09:17:34.135Z,29.40
2018-07-05T09:20:01.382Z,29.60
2018-07-05T09:22:28.733Z,29.70
2018-07-05T09:24:56.041Z,29.60
2018-07-05T09:27:23.439Z,29.50
2018-07-05T09:29:50.744Z,29.50
2018-07-05T09:32:18.065Z,29.60
2018-07-05T09:34:45.399Z,29.30
2018-07-05T09:37:12.793Z,28.30
2018-07-05T09:39:40.064Z,27.70
2018-07-05T09:42:07.365Z,27.60
2018-07-05T09:44:34.739Z,28.10
2018-07-05T09:47:02.113Z,28.60
2018-07-05T09:49:29.432Z,28.80
2018-07-05T09:51:56.736Z,29.00
2018-07-05T09:54:24.076Z,28.60
2018-07-05T09:56:51.519Z,28.20
2018-07-05T09:59:18.872Z,27.90
2018-07-05T10:01:46.233Z,27.90
2018-07-05T10:04:13.582Z,28.20
2018-07-05T10:06:40.905Z,28.10
2018-07-05T10:09:08.258Z,28.50
2018-07-05T10:11:35.601Z,28.30
2018-07-05T10:14:02.933Z,27.90
2018-07-05T10:16:30.247Z,27.80
2018-07-05T10:18:57.636Z,27.80
2018-07-05T10:21:24.957Z,27.70
2018-07-05T10:23:52.332Z,27.80
2018-07-05T10:26:19.666Z,27.80
2018-07-05T10:28:59.505Z,27.80
2018-07-05T10:31:39.526Z,28.30
2018-07-05T10:34:06.866Z,28.80
2018-07-05T10:36:34.177Z,28.90
2018-07-05T10:39:01.514Z,29.50
2018-07-05T10:41:41.213Z,30.10
2018-07-05T10:44:20.935Z,30.40
2018-07-05T10:47:00.597Z,30.20
2018-07-05T10:49:40.337Z,30.90
2018-07-05T10:52:19.960Z,30.80
2018-07-05T10:54:59.553Z,31.30
2018-07-05T10:57:39.306Z,31.20
2018-07-05T11:00:18.896Z,31.10
2018-07-05T11:02:58.524Z,30.70
2018-07-05T11:05:38.253Z,30.40
2018-07-05T11:08:17.820Z,30.40
2018-07-05T11:10:57.544Z,30.70
2018-07-05T11:13:37.748Z,31.10
2018-07-05T11:16:17.810Z,31.20
2018-07-05T11:18:57.535Z,31.30
2018-07-05T11:21:37.044Z,30.90
2018-07-05T11:24:16.737Z,30.80
2018-07-05T11:26:56.327Z,30.30
2018-07-05T11:29:36.102Z,30.30
2018-07-05T11:32:15.637Z,30.40
2018-07-05T11:34:55.290Z,29.80
2018-07-05T11:37:34.905Z,29.90
2018-07-05T11:40:14.605Z,30.00
2018-07-05T11:42:54.217Z,30.00
2018-07-05T11:45:33.906Z,30.00
2018-07-05T11:48:13.461Z,29.70
2018-07-05T11:53:26.965Z,29.40
2018-07-05T11:56:06.605Z,30.20
2018-07-05T11:58:46.287Z,30.10
2018-07-05T12:01:26.035Z,29.60
2018-07-05T12:04:05.723Z,29.70
2018-07-05T12:06:45.454Z,29.80
2018-07-05T12:09:25.104Z,29.70
2018-07-05T12:12:04.837Z,29.80
2018-07-05T12:14:44.680Z,29.70
2018-07-05T12:17:24.297Z,29.40
2018-07-05T12:20:03.845Z,29.20
2018-07-05T12:22:43.597Z,28.50
2018-07-05T12:25:23.253Z,28.30
2018-07-05T12:28:02.905Z,28.00
2018-07-05T12:30:42.733Z,27.90
2018-07-05T12:33:22.360Z,28.10
2018-07-05T12:36:02.088Z,28.20
2018-07-05T12:38:41.729Z,28.30
2018-07-05T12:41:21.428Z,28.40
2018-07-05T12:44:01.027Z,28.50
2018-07-05T12:46:40.687Z,28.50
2018-07-05T12:49:20.373Z,28.60
2018-07-05T12:52:00.013Z,28.90
2018-07-05T12:54:39.805Z,29.10
2018-07-05T12:57:19.493Z,28.90
2018-07-05T12:59:59.059Z,28.70
2018-07-05T13:02:38.792Z,28.80
2018-07-05T13:05:18.623Z,29.00
2018-07-05T13:07:58.160Z,28.90
2018-07-05T13:10:37.920Z,29.10
2018-07-05T13:13:17.738Z,29.00
2018-07-05T13:15:57.389Z,28.90
2018-07-05T13:18:37.124Z,28.80
2018-07-05T13:21:16.842Z,28.50
2018-07-05T13:23:56.513Z,28.30
2018-07-05T13:26:36.268Z,28.10
2018-07-05T13:29:15.647Z,28.00
2018-07-05T13:31:55.251Z,27.80
2018-07-05T13:34:35.120Z,27.80
2018-07-05T13:37:14.693Z,27.70
2018-07-05T13:39:54.303Z,27.70
2018-07-05T13:42:34.025Z,27.60
2018-07-05T13:45:13.584Z,27.70
2018-07-05T13:47:53.205Z,27.80
2018-07-05T13:50:32.869Z,28.10
2018-07-05T13:53:12.605Z,28.40
2018-07-05T13:55:52.314Z,28.30
2018-07-05T13:58:31.837Z,28.50
2018-07-05T14:01:11.402Z,28.90
2018-07-05T14:03:51.122Z,29.20
2018-07-05T14:06:31.001Z,29.50
2018-07-05T14:09:10.941Z,29.40
2018-07-05T14:11:50.560Z,29.50
2018-07-05T14:17:04.112Z,29.60
2018-07-05T14:19:43.593Z,29.70
2018-07-05T14:22:23.203Z,29.80
2018-07-05T14:25:02.853Z,29.80
2018-07-05T14:27:42.522Z,29.80
2018-07-05T14:30:22.189Z,29.70
2018-07-05T14:33:01.994Z,29.60
2018-07-05T14:35:41.601Z,29.70
2018-07-05T14:38:21.194Z,29.70
2018-07-05T14:41:00.777Z,29.40
2018-07-05T14:43:40.708Z,29.00
2018-07-05T14:46:20.492Z,28.60
2018-07-05T14:49:00.369Z,28.20
2018-07-05T14:51:39.980Z,27.90
2018-07-05T14:54:19.453Z,27.70
2018-07-05T14:56:59.144Z,27.60
2018-07-05T14:59:38.632Z,27.50
2018-07-05T15:02:18.181Z,27.60
2018-07-05T15:04:57.745Z,27.80
2018-07-05T15:07:37.394Z,27.90
2018-07-05T15:10:17.129Z,28.20
2018-07-05T15:12:56.834Z,28.40
2018-07-05T15:15:36.589Z,28.50
2018-07-05T15:18:16.297Z,28.60
2018-07-05T15:20:55.833Z,28.50
2018-07-05T15:23:35.622Z,28.20
2018-07-05T15:26:15.418Z,28.20
2018-07-05T15:28:55.237Z,28.20
2018-07-05T15:31:34.696Z,28.20
2018-07-05T15:34:14.224Z,28.10
2018-07-05T15:36:53.853Z,28.00
2018-07-05T15:39:33.503Z,28.00
2018-07-05T15:42:12.988Z,28.00
2018-07-05T15:44:52.794Z,28.00
2018-07-05T15:47:32.574Z,27.90
2018-07-05T15:50:12.269Z,27.80
2018-07-05T15:52:51.844Z,27.80
2018-07-05T15:55:31.445Z,27.60
2018-07-05T15:58:11.058Z,27.30
2018-07-05T16:00:50.913Z,27.20
2018-07-05T16:03:30.632Z,27.00
2018-07-05T16:06:10.217Z,26.80
2018-07-05T16:08:49.744Z,26.70
2018-07-05T16:11:29.346Z,26.60
2018-07-05T16:14:09.037Z,26.40
2018-07-05T16:16:48.720Z,26.30
2018-07-05T16:19:28.493Z,26.20
2018-07-05T16:22:08.081Z,26.00
2018-07-05T16:24:47.591Z,25.90
2018-07-05T16:27:27.382Z,25.80
2018-07-05T16:30:07.031Z,25.80
2018-07-05T16:32:46.613Z,25.80
2018-07-05T16:35:26.189Z,25.50
2018-07-05T16:38:05.969Z,25.30
2018-07-05T16:40:45.589Z,25.20
2018-07-05T16:43:25.385Z,25.10
2018-07-05T16:46:05.096Z,24.90
2018-07-05T16:48:44.753Z,24.90
2018-07-05T16:51:24.292Z,24.70
2018-07-05T16:54:04.021Z,24.50
2018-07-05T16:56:43.650Z,24.40
2018-07-05T16:59:23.296Z,24.40
2018-07-05T17:02:02.942Z,24.30
2018-07-05T17:04:42.782Z,24.30
2018-07-05T17:07:22.510Z,24.30
2018-07-05T17:10:02.056Z,24.30
2018-07-05T17:12:41.661Z,24.30
2018-07-05T17:15:21.469Z,24.40
2018-07-05T17:18:01.049Z,24.50
2018-07-05T17:20:40.897Z,24.70
2018-07-05T17:23:20.648Z,24.60
2018-07-05T17:26:00.354Z,24.50
2018-07-05T17:28:39.933Z,24.40
2018-07-05T17:31:19.661Z,24.30
2018-07-05T17:33:59.245Z,24.30
2018-07-05T17:36:38.980Z,24.10
2018-07-05T17:39:18.591Z,24.10
2018-07-05T17:41:58.315Z,24.00
2018-07-05T17:44:38.122Z,24.00
2018-07-05T17:47:18.081Z,23.90
2018-07-05T17:49:57.717Z,23.90
2018-07-05T17:52:37.329Z,23.90
2018-07-05T17:55:17.049Z,23.80
2018-07-05T17:57:56.707Z,23.80
2018-07-05T18:00:36.332Z,23.70
2018-07-05T18:03:16.029Z,23.60
2018-07-05T18:05:55.576Z,23.60
2018-07-05T18:08:35.297Z,23.60
2018-07-05T18:11:14.990Z,23.60
2018-07-05T18:13:54.918Z,23.60
2018-07-05T18:16:34.694Z,23.60
2018-07-05T18:19:14.882Z,23.60
2018-07-05T18:21:54.481Z,23.60
2018-07-05T18:24:34.111Z,23.60
2018-07-05T18:27:13.768Z,23.50
2018-07-05T18:29:53.445Z,23.40
2018-07-05T18:32:33.141Z,23.30
2018-07-05T18:35:13.044Z,23.20
2018-07-05T18:37:52.831Z,23.20
2018-07-05T18:40:32.468Z,23.10
2018-07-05T18:43:12.153Z,23.10
2018-07-05T18:45:51.927Z,23.00
2018-07-05T18:48:31.646Z,22.90
2018-07-05T18:51:11.312Z,22.80
2018-07-05T18:53:51.162Z,22.80
2018-07-05T18:56:30.766Z,22.70
2018-07-05T18:59:10.273Z,22.70
2018-07-05T19:01:50.078Z,22.60
2018-07-05T19:04:29.839Z,22.50
2018-07-05T19:07:09.528Z,22.50
2018-07-05T19:09:49.250Z,22.40
2018-07-05T19:12:28.930Z,22.30
2018-07-05T19:15:08.748Z,22.20
2018-07-05T19:17:48.587Z,22.10
2018-07-05T19:20:28.161Z,22.10
2018-07-05T19:23:07.763Z,22.00
2018-07-05T19:25:47.894Z,21.80
2018-07-05T19:28:27.713Z,21.80
2018-07-05T19:31:07.368Z,21.60
2018-07-05T19:33:46.993Z,21.50
2018-07-05T19:36:26.666Z,21.40
2018-07-05T19:39:07.737Z,21.30
2018-07-05T19:41:47.524Z,21.20
2018-07-05T19:44:27.214Z,21.00
2018-07-05T19:47:07.219Z,20.90
2018-07-05T19:52:20.890Z,20.80
2018-07-05T19:55:00.830Z,20.70
2018-07-05T19:57:40.539Z,20.70
2018-07-05T20:00:20.386Z,20.60
2018-07-05T20:02:59.994Z,20.50
2018-07-05T20:05:39.702Z,20.40
2018-07-05T20:08:19.398Z,20.40
2018-07-05T20:11:00.597Z,20.30
2018-07-05T20:13:41.467Z,20.30
2018-07-05T20:16:21.428Z,20.20
2018-07-05T20:19:01.158Z,20.00
2018-07-05T20:21:40.877Z,19.90
2018-07-05T20:24:20.626Z,19.90
2018-07-05T20:27:00.321Z,19.80
2018-07-05T20:29:40.100Z,19.70
2018-07-05T20:32:19.818Z,19.60
2018-07-05T20:34:59.462Z,19.50
2018-07-05T20:37:39.121Z,19.50
2018-07-05T20:40:18.674Z,19.40
2018-07-05T20:42:59.864Z,19.40
2018-07-05T20:48:13.665Z,19.40
2018-07-05T20:50:53.256Z,19.30
2018-07-05T20:53:32.880Z,19.40
2018-07-05T20:56:12.601Z,19.30
2018-07-05T20:58:52.227Z,19.40
2018-07-05T21:01:31.879Z,19.30
2018-07-05T21:04:11.609Z,19.30
2018-07-05T21:06:51.152Z,19.30
2018-07-05T21:09:31.379Z,19.30
2018-07-05T21:12:10.945Z,19.30
2018-07-05T21:14:50.660Z,19.20
2018-07-05T21:17:30.483Z,19.10
2018-07-05T21:20:10.292Z,19.10
2018-07-05T21:22:49.897Z,19.00
2018-07-05T21:25:29.518Z,19.00
2018-07-05T21:28:09.052Z,18.90
2018-07-05T21:30:48.808Z,18.80
2018-07-05T21:33:28.512Z,18.80
2018-07-05T21:36:08.312Z,18.70
2018-07-05T21:38:48.152Z,18.70
2018-07-05T21:41:28.000Z,18.70
2018-07-05T21:44:07.686Z,18.80
2018-07-05T21:49:20.979Z,18.90
2018-07-05T21:52:00.658Z,19.00
2018-07-05T21:54:40.297Z,19.10
2018-07-05T21:57:19.909Z,19.10
2018-07-05T21:59:59.631Z,19.10
2018-07-05T22:02:39.286Z,19.10
2018-07-05T22:05:18.911Z,19.10
2018-07-05T22:07:58.624Z,19.00
2018-07-05T22:10:38.277Z,19.00
2018-07-05T22:13:17.994Z,18.90
2018-07-05T22:15:57.617Z,18.80
2018-07-05T22:18:42.802Z,18.70
2018-07-05T22:21:22.487Z,18.70
2018-07-05T22:24:07.436Z,18.60
2018-07-05T22:26:48.017Z,18.60
2018-07-05T22:29:33.232Z,18.50
2018-07-05T22:32:12.981Z,18.50
2018-07-05T22:34:52.881Z,18.40
2018-07-05T22:37:32.498Z,18.30
2018-07-05T22:40:12.101Z,18.30
2018-07-05T22:42:51.869Z,18.20
2018-07-05T22:45:31.466Z,18.10
2018-07-05T22:48:11.046Z,18.10
2018-07-05T22:50:50.889Z,18.00
2018-07-05T22:53:30.614Z,18.00
2018-07-05T22:56:10.237Z,18.00
2018-07-05T22:58:49.960Z,18.00
2018-07-05T23:01:29.642Z,18.00
2018-07-05T23:04:09.175Z,17.90
2018-07-05T23:06:48.853Z,18.00
2018-07-05T23:09:28.489Z,18.00
2018-07-05T23:12:08.250Z,17.90
2018-07-05T23:14:47.841Z,17.90
2018-07-05T23:17:27.620Z,17.80
2018-07-05T23:20:07.469Z,17.70
2018-07-05T23:22:47.111Z,17.60
2018-07-05T23:25:26.713Z,17.50
2018-07-05T23:28:06.488Z,17.50
2018-07-05T23:30:46.137Z,17.40
2018-07-05T23:33:25.845Z,17.40
2018-07-05T23:36:05.564Z,17.40
2018-07-05T23:38:45.186Z,17.40
2018-07-05T23:41:24.905Z,17.40
2018-07-05T23:44:04.652Z,17.40
2018-07-05T23:46:44.293Z,17.40
2018-07-05T23:49:24.023Z,17.40
2018-07-05T23:52:03.769Z,17.40
2018-07-05T23:54:43.413Z,17.30
2018-07-05T23:57:23.132Z,17.30
